Waynesfield, OH (45896)

7:36 PM EST on January 31, 2015 (GMT -0500)
Lima Allen County | Change Station
CLOSE
Current Station
Airport
Location: Lima,
Elevation: 974 ft
Nearby Weather Stations
Active Advisory: Winter Storm Warning

Elev 974 ft 40.71 °N, 84.03 °W | Updated 43 minutes ago

Overcast
Overcast
35 °F
Feels Like 30 °F
N
6
Wind Variable Wind from South

Today
High -- | Low -- °F
--% Chance of Precip.
Yesterday
High -- | Low -- °F
Precip. -- in
7:46 AM 5:52 PM
Waxing Gibbous, 92% visible
Pressure 30.24 in
Visibility 10.0 miles
Clouds Overcast 5500 ft
Windchill 30 °F
Dew Point 25 °F
Humidity 67%
Rainfall 0.00 in
Snow Depth Not available.
UV 0 out of 12
Pollen .10 out of 12
Air Quality Not available.
Flu Activity Not available.
METAR KAOH 312353Z AUTO 19005KT 10SM OVC055 02/M04 A3020 RMK AO2 SLP240 T00171039 10017 20000 56001

More Conditions Fewer Conditions

Pressure 30.24 in
Visibility 10.0 miles
Clouds Overcast 5500 ft
Windchill 30 °F
Dew Point 25 °F
Humidity 67%
Rainfall 0.00 in
Snow Depth Not available.
UV 0 out of 12
Pollen .10 out of 12
Air Quality Not available.
Flu Activity Not available.
METAR KAOH 312353Z AUTO 19005KT 10SM OVC055 02/M04 A3020 RMK AO2 SLP240 T00171039 10017 20000 56001

More Conditions Fewer Conditions

10-Day Weather Forecast

Almanac

Astronomy

Jan. 31, 2015 Rise Set
Actual Time
Civil Twilight
Nautical Twilight
Astronomical Twilight
Moon
Length of Visible Light
Length of Day
Tomorrow will be .
, % of the Moon is Illuminated

Today's Extremes

State Highs State Lows

Community

WunderPhotos

Upload Photos

1,792,262 photos uploaded!

WunderBlogs® & News

Nearby

Air Quality

  Air Quality AQ Index Pollutant
Not available.

Snow Depth

Station Depth Elevation

Earthquake Activity

City Distance Mag. Time & Date
Minimum magnitude displayed is 2.5.

Coastal Water Temperatures

Place Temperature

Nearby Weather Stations